createdAt,value
2023-05-03T00:01:59.264Z,7.98
2023-05-03T00:04:26.723Z,8.03
2023-05-03T00:06:54.220Z,8.01
2023-05-03T00:09:21.779Z,8.13
2023-05-03T00:11:49.124Z,8.12
2023-05-03T00:14:16.539Z,8.07
2023-05-03T00:16:44.071Z,8.10
2023-05-03T00:19:24.173Z,7.87
2023-05-03T00:21:58.229Z,7.87
2023-05-03T00:24:25.621Z,7.73
2023-05-03T00:26:52.996Z,7.79
2023-05-03T00:29:22.836Z,7.69
2023-05-03T00:31:50.309Z,7.73
2023-05-03T00:34:17.693Z,7.59
2023-05-03T00:36:45.045Z,7.67
2023-05-03T00:39:12.655Z,7.62
2023-05-03T00:41:40.128Z,7.64
2023-05-03T00:44:07.525Z,7.57
2023-05-03T00:46:35.039Z,7.64
2023-05-03T00:49:02.619Z,7.57
2023-05-03T00:51:29.995Z,7.53
2023-05-03T00:53:57.542Z,7.51
2023-05-03T00:56:24.997Z,7.53
2023-05-03T00:58:52.842Z,7.36
2023-05-03T01:01:20.301Z,7.41
2023-05-03T01:03:48.429Z,7.37
2023-05-03T01:06:18.773Z,7.22
2023-05-03T01:08:54.091Z,7.23
2023-05-03T01:11:25.180Z,7.14
2023-05-03T01:14:22.046Z,7.21
2023-05-03T01:16:55.017Z,7.31
2023-05-03T01:19:39.055Z,7.20
2023-05-03T01:22:27.354Z,7.29
2023-05-03T01:25:07.874Z,7.33
2023-05-03T01:27:35.285Z,7.35
2023-05-03T01:30:05.828Z,7.32
2023-05-03T01:32:53.744Z,7.20
2023-05-03T01:35:32.048Z,7.17
2023-05-03T01:37:59.955Z,7.16
2023-05-03T01:40:29.002Z,7.06
2023-05-03T01:42:57.604Z,7.21
2023-05-03T01:45:25.796Z,7.24
2023-05-03T01:47:53.262Z,7.10
2023-05-03T01:50:20.742Z,7.13
2023-05-03T01:52:48.610Z,7.05
2023-05-03T01:55:16.118Z,7.09
2023-05-03T01:57:43.664Z,7.15
2023-05-03T02:00:11.684Z,7.13
2023-05-03T02:02:39.170Z,7.01
2023-05-03T02:05:07.051Z,7.15
2023-05-03T02:07:34.643Z,7.09
2023-05-03T02:10:02.476Z,7.07
2023-05-03T02:12:29.966Z,7.05
2023-05-03T02:14:57.379Z,6.85
2023-05-03T02:17:26.616Z,6.77
2023-05-03T02:19:54.202Z,6.90
2023-05-03T02:22:21.775Z,6.79
2023-05-03T02:24:49.576Z,6.84
2023-05-03T02:27:17.253Z,6.75
2023-05-03T02:29:45.010Z,6.41
2023-05-03T02:32:12.672Z,6.66
2023-05-03T02:34:40.229Z,6.59
2023-05-03T02:37:07.712Z,6.45
2023-05-03T02:39:35.078Z,6.39
2023-05-03T02:42:02.565Z,6.56
2023-05-03T02:44:31.874Z,6.49
2023-05-03T02:47:00.555Z,6.53
2023-05-03T02:49:28.003Z,6.80
2023-05-03T02:51:56.701Z,6.59
2023-05-03T02:54:24.255Z,6.58
2023-05-03T02:56:51.794Z,6.71
2023-05-03T02:59:19.202Z,6.46
2023-05-03T03:01:47.346Z,6.73
2023-05-03T03:04:15.801Z,6.68
2023-05-03T03:06:43.239Z,6.65
2023-05-03T03:09:10.747Z,6.65
2023-05-03T03:11:38.213Z,6.63
2023-05-03T03:14:05.695Z,6.57
2023-05-03T03:16:33.302Z,6.63
2023-05-03T03:19:00.773Z,6.60
2023-05-03T03:21:29.045Z,6.45
2023-05-03T03:23:57.251Z,6.51
2023-05-03T03:26:24.659Z,6.43
2023-05-03T03:28:52.106Z,6.44
2023-05-03T03:31:19.568Z,6.48
2023-05-03T03:33:47.421Z,6.41
2023-05-03T03:36:14.929Z,6.42
2023-05-03T03:38:42.283Z,6.50
2023-05-03T03:41:10.001Z,6.44
2023-05-03T03:43:37.404Z,6.35
2023-05-03T03:46:04.790Z,6.25
2023-05-03T03:48:32.192Z,6.24
2023-05-03T03:50:59.640Z,6.35
2023-05-03T03:53:27.120Z,6.38
2023-05-03T03:55:54.609Z,6.27
2023-05-03T03:58:22.102Z,6.31
2023-05-03T04:00:49.718Z,6.31
2023-05-03T04:03:17.603Z,6.14
2023-05-03T04:05:45.274Z,6.17
2023-05-03T04:08:12.745Z,6.12
2023-05-03T04:10:40.179Z,6.05
2023-05-03T04:13:07.611Z,6.07
2023-05-03T04:15:35.075Z,5.96
2023-05-03T04:18:02.897Z,6.04
2023-05-03T04:20:30.366Z,6.05
2023-05-03T04:22:57.803Z,6.07
2023-05-03T04:25:25.587Z,6.15
2023-05-03T04:27:53.822Z,6.14
2023-05-03T04:30:21.262Z,6.17
2023-05-03T04:32:48.673Z,6.17
2023-05-03T04:35:16.128Z,6.14
2023-05-03T04:37:43.693Z,6.18
2023-05-03T04:40:12.381Z,6.16
2023-05-03T04:42:40.025Z,6.13
2023-05-03T04:45:09.646Z,6.07
2023-05-03T04:47:37.606Z,5.99
2023-05-03T04:50:05.800Z,6.18
2023-05-03T04:52:33.491Z,6.05
2023-05-03T04:55:00.914Z,6.20
2023-05-03T04:57:28.674Z,6.19
2023-05-03T04:59:56.062Z,6.25
2023-05-03T05:02:23.625Z,6.24
2023-05-03T05:04:51.152Z,6.45
2023-05-03T05:07:18.674Z,6.35
2023-05-03T05:09:46.232Z,6.44
2023-05-03T05:12:13.713Z,6.53
2023-05-03T05:14:41.110Z,6.78
2023-05-03T05:17:08.642Z,6.85
2023-05-03T05:19:36.811Z,6.91
2023-05-03T05:22:04.463Z,6.87
2023-05-03T05:24:31.861Z,6.97
2023-05-03T05:26:59.296Z,6.89
2023-05-03T05:29:26.724Z,6.88
2023-05-03T05:31:54.205Z,6.74
2023-05-03T05:34:21.640Z,7.08
2023-05-03T05:36:50.554Z,7.06
2023-05-03T05:39:18.044Z,7.34
2023-05-03T05:41:45.471Z,7.36
2023-05-03T05:44:13.284Z,7.12
2023-05-03T05:46:40.774Z,7.79
2023-05-03T05:49:08.216Z,7.93
2023-05-03T05:51:35.693Z,7.47
2023-05-03T05:54:03.612Z,7.42
2023-05-03T05:56:31.008Z,7.95
2023-05-03T05:58:58.410Z,7.81
2023-05-03T06:01:27.089Z,8.22
2023-05-03T06:03:55.510Z,8.32
2023-05-03T06:06:23.003Z,8.34
2023-05-03T06:08:51.494Z,8.39
2023-05-03T06:11:19.122Z,8.23
2023-05-03T06:13:46.723Z,8.64
2023-05-03T06:16:14.303Z,8.73
2023-05-03T06:18:41.993Z,8.62
2023-05-03T06:21:10.262Z,8.55
2023-05-03T06:23:39.702Z,8.61
2023-05-03T06:26:07.569Z,9.09
2023-05-03T06:28:35.911Z,9.47
2023-05-03T06:31:03.738Z,9.89
2023-05-03T06:33:31.386Z,10.03
2023-05-03T06:35:59.459Z,9.79
2023-05-03T06:38:27.084Z,9.88
2023-05-03T06:40:54.499Z,9.87
2023-05-03T06:43:22.258Z,10.03
2023-05-03T06:45:52.303Z,10.14
2023-05-03T06:48:19.904Z,10.09
2023-05-03T06:50:47.443Z,10.03
2023-05-03T06:53:14.814Z,10.48
2023-05-03T06:55:44.424Z,10.51
2023-05-03T06:58:11.776Z,9.90
2023-05-03T07:00:39.870Z,10.30
2023-05-03T07:03:07.538Z,10.03
2023-05-03T07:05:35.554Z,10.75
2023-05-03T07:08:03.625Z,10.81
2023-05-03T07:10:31.463Z,10.93
2023-05-03T07:12:59.134Z,10.79
2023-05-03T07:15:26.545Z,10.90
2023-05-03T07:17:54.009Z,10.90
2023-05-03T07:20:21.534Z,10.69
2023-05-03T07:22:49.076Z,10.88
2023-05-03T07:25:17.880Z,10.71
2023-05-03T07:27:45.539Z,11.07
2023-05-03T07:30:13.037Z,11.20
2023-05-03T07:32:40.600Z,11.75
2023-05-03T07:35:08.588Z,12.01
2023-05-03T07:37:36.432Z,11.60
2023-05-03T07:40:06.626Z,11.64
2023-05-03T07:42:34.244Z,11.49
2023-05-03T07:45:01.820Z,11.31
2023-05-03T07:47:29.362Z,11.44
2023-05-03T07:49:56.782Z,11.80
2023-05-03T07:52:24.203Z,11.60
2023-05-03T07:54:51.580Z,11.95
2023-05-03T07:57:18.992Z,12.32
2023-05-03T07:59:46.374Z,11.77
2023-05-03T08:02:14.636Z,11.88
2023-05-03T08:04:42.220Z,12.00
2023-05-03T08:07:09.701Z,12.61
2023-05-03T08:09:37.546Z,12.50
2023-05-03T08:12:05.027Z,12.61
2023-05-03T08:14:33.692Z,11.91
2023-05-03T08:17:01.538Z,11.94
2023-05-03T08:19:28.999Z,12.69
2023-05-03T08:21:56.517Z,12.10
2023-05-03T08:24:24.176Z,12.69
2023-05-03T08:26:52.272Z,12.73
2023-05-03T08:29:19.734Z,12.53
2023-05-03T08:31:47.322Z,12.75
2023-05-03T08:34:14.938Z,12.83
2023-05-03T08:36:42.397Z,13.02
2023-05-03T08:39:10.336Z,13.30
2023-05-03T08:41:37.808Z,13.19
2023-05-03T08:44:05.557Z,13.24
2023-05-03T08:46:37.156Z,14.07
2023-05-03T08:49:06.900Z,14.39
2023-05-03T08:51:35.200Z,14.19
2023-05-03T08:54:02.611Z,14.42
2023-05-03T08:56:31.058Z,14.46
2023-05-03T08:59:04.920Z,15.07
2023-05-03T09:01:32.328Z,15.30
2023-05-03T09:03:59.949Z,14.53
2023-05-03T09:06:27.559Z,15.40
2023-05-03T09:08:55.522Z,15.03
2023-05-03T09:11:23.968Z,15.78
2023-05-03T09:13:52.916Z,15.99
2023-05-03T09:16:29.407Z,15.22
2023-05-03T09:19:01.544Z,15.08
2023-05-03T09:21:29.443Z,14.65
2023-05-03T09:23:56.849Z,15.13
2023-05-03T09:26:31.247Z,15.92
2023-05-03T09:28:59.357Z,16.52
2023-05-03T09:31:26.959Z,15.65
2023-05-03T09:33:54.592Z,16.58
2023-05-03T09:36:22.128Z,17.34
2023-05-03T09:38:50.026Z,17.01
2023-05-03T09:41:17.531Z,15.71
2023-05-03T09:43:52.341Z,15.84
2023-05-03T09:46:20.504Z,15.38
2023-05-03T09:48:49.391Z,14.74
2023-05-03T09:51:17.337Z,14.31
2023-05-03T09:53:44.678Z,15.81
2023-05-03T09:56:13.491Z,15.42
2023-05-03T09:58:41.569Z,16.47
2023-05-03T10:01:10.269Z,16.38
2023-05-03T10:03:37.777Z,15.70
2023-05-03T10:06:09.734Z,17.05
2023-05-03T10:08:45.518Z,16.19
2023-05-03T10:11:16.195Z,15.57
2023-05-03T10:13:43.675Z,15.97
2023-05-03T10:16:17.384Z,17.37
2023-05-03T10:18:54.980Z,16.71
2023-05-03T10:21:27.632Z,17.50
2023-05-03T10:24:11.147Z,17.25
2023-05-03T10:26:38.579Z,18.47
2023-05-03T10:29:07.276Z,18.66
2023-05-03T10:31:50.411Z,18.05
2023-05-03T10:34:21.231Z,17.36
2023-05-03T10:36:50.491Z,17.33
2023-05-03T10:39:18.986Z,17.81
2023-05-03T10:41:46.823Z,17.45
2023-05-03T10:44:37.447Z,16.93
2023-05-03T10:47:14.546Z,16.47
2023-05-03T10:49:41.985Z,17.17
2023-05-03T10:52:27.945Z,17.65
2023-05-03T10:54:55.357Z,16.51
2023-05-03T10:57:27.455Z,18.26
2023-05-03T10:59:55.135Z,17.89
2023-05-03T11:02:24.906Z,17.47
2023-05-03T11:04:53.601Z,16.86
2023-05-03T11:07:22.726Z,17.96
2023-05-03T11:09:50.184Z,17.57
2023-05-03T11:12:17.586Z,18.27
2023-05-03T11:14:44.974Z,16.82
2023-05-03T11:17:12.484Z,18.25
2023-05-03T11:19:40.604Z,17.38
2023-05-03T11:22:08.089Z,18.11
2023-05-03T11:24:35.452Z,19.45
2023-05-03T11:27:08.197Z,18.43
2023-05-03T11:29:36.238Z,19.20
2023-05-03T11:32:03.712Z,19.17
2023-05-03T11:34:31.196Z,19.28
2023-05-03T11:36:59.770Z,19.20
2023-05-03T11:39:28.857Z,18.10
2023-05-03T11:42:06.293Z,17.77
2023-05-03T11:44:33.857Z,19.30
2023-05-03T11:47:01.802Z,19.17
2023-05-03T11:49:29.582Z,19.56
2023-05-03T11:51:57.259Z,19.42
2023-05-03T11:54:27.419Z,18.31
2023-05-03T11:56:57.535Z,18.44
2023-05-03T11:59:40.819Z,19.38
2023-05-03T12:02:10.178Z,19.31
2023-05-03T12:04:41.685Z,19.16
2023-05-03T12:07:10.986Z,19.29
2023-05-03T12:09:40.096Z,18.44
2023-05-03T12:12:11.099Z,18.46
2023-05-03T12:14:58.431Z,18.77
2023-05-03T12:17:42.385Z,18.85
2023-05-03T12:22:57.717Z,21.09
2023-05-03T12:25:28.360Z,20.08
2023-05-03T12:28:18.801Z,19.22
2023-05-03T12:30:48.638Z,19.01
2023-05-03T12:33:21.642Z,19.04
2023-05-03T12:35:52.736Z,19.57
2023-05-03T12:38:23.943Z,19.61
2023-05-03T12:40:53.177Z,19.57
2023-05-03T12:43:20.879Z,19.30
2023-05-03T12:45:55.832Z,19.70
2023-05-03T12:48:36.306Z,20.11
2023-05-03T12:51:18.740Z,19.03
2023-05-03T12:53:54.360Z,20.25
2023-05-03T12:56:24.896Z,19.62
2023-05-03T12:59:15.151Z,19.91
2023-05-03T13:06:43.826Z,21.06
2023-05-03T13:09:19.078Z,20.35
2023-05-03T13:11:50.090Z,20.11
2023-05-03T13:14:17.844Z,19.57
2023-05-03T13:16:45.786Z,19.74
2023-05-03T13:19:16.727Z,20.64
2023-05-03T13:21:44.294Z,20.29
2023-05-03T13:24:11.872Z,19.46
2023-05-03T13:26:39.301Z,20.80
2023-05-03T13:29:07.416Z,21.36
2023-05-03T13:31:40.741Z,19.94
2023-05-03T13:34:08.530Z,19.63
2023-05-03T13:36:36.160Z,21.03
2023-05-03T13:39:03.699Z,20.46
2023-05-03T13:41:31.547Z,19.93
2023-05-03T13:43:59.075Z,19.61
2023-05-03T13:46:26.829Z,20.35
2023-05-03T13:48:56.284Z,22.08
2023-05-03T13:51:25.149Z,21.22
2023-05-03T13:53:52.942Z,21.03
2023-05-03T13:56:20.467Z,20.72
2023-05-03T13:58:47.901Z,20.04
2023-05-03T14:01:15.400Z,20.21
2023-05-03T14:03:42.882Z,19.65
2023-05-03T14:06:10.636Z,20.36
2023-05-03T14:08:38.009Z,19.79
2023-05-03T14:11:06.538Z,19.32
2023-05-03T14:13:47.664Z,19.83
2023-05-03T14:16:35.786Z,19.30
2023-05-03T14:19:10.219Z,19.17
2023-05-03T14:21:38.474Z,18.31
2023-05-03T14:24:06.515Z,18.34
2023-05-03T14:26:34.866Z,18.02
2023-05-03T14:29:02.411Z,17.63
2023-05-03T14:31:30.464Z,17.99
2023-05-03T14:33:59.281Z,18.39
2023-05-03T14:36:29.507Z,17.93
2023-05-03T14:38:56.914Z,17.82
2023-05-03T14:41:24.300Z,17.79
2023-05-03T14:43:51.710Z,18.45
2023-05-03T14:46:19.159Z,17.48
2023-05-03T14:48:46.633Z,17.80
2023-05-03T14:51:14.968Z,17.01
2023-05-03T14:53:42.478Z,17.77
2023-05-03T14:56:10.053Z,17.37
2023-05-03T14:58:37.468Z,17.97
2023-05-03T15:01:05.007Z,18.09
2023-05-03T15:03:32.565Z,18.11
2023-05-03T15:06:00.226Z,17.81
2023-05-03T15:08:27.924Z,17.74
2023-05-03T15:10:55.400Z,17.31
2023-05-03T15:13:24.348Z,17.72
2023-05-03T15:15:52.115Z,17.36
2023-05-03T15:18:20.358Z,17.28
2023-05-03T15:20:48.014Z,17.78
2023-05-03T15:23:15.461Z,17.79
2023-05-03T15:25:42.934Z,17.57
2023-05-03T15:28:10.390Z,17.12
2023-05-03T15:30:38.030Z,17.25
2023-05-03T15:33:05.683Z,17.79
2023-05-03T15:35:33.156Z,17.53
2023-05-03T15:38:00.597Z,17.58
2023-05-03T15:40:28.125Z,17.55
2023-05-03T15:42:55.731Z,17.63
2023-05-03T15:45:26.015Z,17.84
2023-05-03T15:47:53.681Z,17.30
2023-05-03T15:50:23.250Z,17.40
2023-05-03T15:52:50.788Z,17.22
2023-05-03T15:55:19.384Z,17.55
2023-05-03T15:57:46.857Z,16.76
2023-05-03T16:00:16.363Z,17.33
2023-05-03T16:02:44.093Z,17.75
2023-05-03T16:05:12.781Z,17.80
2023-05-03T16:07:40.348Z,17.25
2023-05-03T16:10:11.021Z,17.80
2023-05-03T16:12:38.543Z,17.71
2023-05-03T16:15:07.723Z,17.75
2023-05-03T16:17:36.462Z,17.70
2023-05-03T16:20:08.252Z,17.31
2023-05-03T16:22:37.104Z,17.75
2023-05-03T16:25:07.404Z,17.64
2023-05-03T16:27:35.039Z,17.26
2023-05-03T16:30:02.968Z,17.29
2023-05-03T16:32:30.720Z,17.06
2023-05-03T16:34:58.321Z,16.93
2023-05-03T16:37:25.697Z,16.88
2023-05-03T16:39:53.071Z,17.12
2023-05-03T16:42:20.503Z,16.82
2023-05-03T16:44:48.137Z,16.81
2023-05-03T16:47:15.816Z,16.99
2023-05-03T16:49:43.615Z,17.13
2023-05-03T16:52:11.282Z,17.20
2023-05-03T16:54:38.880Z,17.28
2023-05-03T16:57:06.378Z,17.15
2023-05-03T16:59:34.106Z,17.50
2023-05-03T17:02:01.584Z,17.33
2023-05-03T17:04:29.326Z,17.40
2023-05-03T17:06:57.521Z,17.31
2023-05-03T17:09:24.942Z,17.04
2023-05-03T17:11:52.601Z,16.83
2023-05-03T17:14:20.098Z,16.94
2023-05-03T17:16:48.932Z,16.84
2023-05-03T17:19:18.083Z,16.78
2023-05-03T17:21:45.500Z,16.56
2023-05-03T17:24:12.946Z,16.75
2023-05-03T17:26:40.618Z,16.75
2023-05-03T17:29:08.537Z,16.85
2023-05-03T17:31:35.924Z,17.01
2023-05-03T17:34:03.453Z,16.44
2023-05-03T17:36:30.915Z,16.64
2023-05-03T17:38:58.429Z,16.67
2023-05-03T17:41:25.972Z,16.54
2023-05-03T17:43:53.770Z,16.68
2023-05-03T17:46:21.232Z,16.67
2023-05-03T17:48:48.747Z,16.44
2023-05-03T17:51:16.461Z,16.75
2023-05-03T17:53:43.899Z,16.58
2023-05-03T17:56:18.018Z,16.50
2023-05-03T17:58:46.584Z,16.51
2023-05-03T18:01:15.749Z,16.61
2023-05-03T18:03:43.754Z,16.43
2023-05-03T18:06:13.266Z,16.70
2023-05-03T18:08:41.419Z,16.26
2023-05-03T18:11:09.305Z,16.47
2023-05-03T18:13:36.785Z,16.13
2023-05-03T18:16:08.315Z,16.20
2023-05-03T18:18:35.926Z,15.66
2023-05-03T18:21:04.521Z,15.94
2023-05-03T18:23:32.728Z,15.92
2023-05-03T18:26:00.864Z,15.99
2023-05-03T18:28:28.367Z,15.73
2023-05-03T18:30:56.621Z,15.52
2023-05-03T18:33:24.049Z,15.58
2023-05-03T18:35:52.104Z,15.72
2023-05-03T18:38:21.434Z,15.64
2023-05-03T18:40:51.347Z,15.57
2023-05-03T18:43:18.864Z,15.39
2023-05-03T18:45:46.350Z,15.57
2023-05-03T18:48:13.870Z,15.49
2023-05-03T18:50:43.085Z,15.19
2023-05-03T18:53:11.488Z,15.19
2023-05-03T18:55:38.890Z,15.20
2023-05-03T18:58:06.358Z,15.14
2023-05-03T19:00:33.889Z,15.17
2023-05-03T19:03:01.532Z,15.16
2023-05-03T19:05:29.034Z,14.85
2023-05-03T19:07:56.501Z,14.97
2023-05-03T19:10:25.508Z,14.90
2023-05-03T19:12:53.783Z,14.82
2023-05-03T19:15:21.554Z,14.73
2023-05-03T19:17:49.116Z,14.71
2023-05-03T19:20:17.369Z,14.64
2023-05-03T19:22:44.787Z,14.70
2023-05-03T19:25:12.237Z,14.48
2023-05-03T19:27:39.619Z,14.77
2023-05-03T19:30:07.795Z,14.81
2023-05-03T19:32:38.998Z,14.69
2023-05-03T19:35:09.748Z,14.41
2023-05-03T19:37:37.477Z,14.43
2023-05-03T19:40:06.269Z,14.48
2023-05-03T19:42:34.163Z,14.41
2023-05-03T19:45:03.451Z,14.40
2023-05-03T19:47:31.540Z,14.20
2023-05-03T19:49:58.981Z,14.39
2023-05-03T19:52:26.410Z,14.18
2023-05-03T19:54:53.877Z,14.18
2023-05-03T19:57:21.313Z,14.17
2023-05-03T19:59:48.772Z,14.23
2023-05-03T20:02:16.581Z,14.04
2023-05-03T20:04:43.982Z,13.97
2023-05-03T20:07:11.371Z,13.79
2023-05-03T20:09:38.752Z,13.92
2023-05-03T20:12:06.390Z,13.75
2023-05-03T20:14:33.783Z,13.85
2023-05-03T20:17:01.505Z,13.63
2023-05-03T20:19:28.973Z,13.60
2023-05-03T20:21:56.437Z,13.37
2023-05-03T20:24:24.204Z,13.62
2023-05-03T20:26:51.758Z,13.69
2023-05-03T20:29:19.335Z,13.89
2023-05-03T20:31:48.452Z,13.28
2023-05-03T20:34:16.299Z,13.65
2023-05-03T20:36:43.743Z,13.49
2023-05-03T20:39:11.810Z,13.17
2023-05-03T20:41:39.308Z,13.09
2023-05-03T20:44:06.741Z,13.04
2023-05-03T20:46:35.507Z,13.12
2023-05-03T20:49:02.875Z,13.13
2023-05-03T20:51:30.388Z,13.20
2023-05-03T20:53:57.792Z,13.20
2023-05-03T20:56:25.287Z,13.18
2023-05-03T20:58:52.675Z,12.78
2023-05-03T21:01:22.314Z,12.74
2023-05-03T21:03:49.742Z,12.84
2023-05-03T21:06:17.077Z,12.80
2023-05-03T21:08:44.664Z,12.65
2023-05-03T21:11:12.015Z,12.83
2023-05-03T21:13:39.403Z,12.53
2023-05-03T21:16:07.964Z,12.64
2023-05-03T21:18:35.775Z,12.30
2023-05-03T21:21:03.747Z,12.46
2023-05-03T21:23:31.145Z,12.32
2023-05-03T21:25:58.646Z,12.31
2023-05-03T21:28:26.233Z,12.41
2023-05-03T21:30:55.300Z,12.11
2023-05-03T21:33:22.833Z,12.17
2023-05-03T21:35:50.409Z,12.29
2023-05-03T21:38:17.899Z,12.20
2023-05-03T21:40:46.956Z,12.12
2023-05-03T21:43:14.424Z,12.10
2023-05-03T21:45:45.144Z,12.12
2023-05-03T21:48:12.611Z,11.95
2023-05-03T21:50:40.547Z,12.04
2023-05-03T21:53:07.980Z,11.98
2023-05-03T21:55:35.428Z,11.89
2023-05-03T21:58:02.903Z,12.10
2023-05-03T22:00:31.680Z,12.05
2023-05-03T22:02:59.236Z,12.05
2023-05-03T22:05:26.714Z,11.72
2023-05-03T22:07:54.177Z,11.54
2023-05-03T22:10:21.695Z,11.71
2023-05-03T22:12:49.262Z,11.87
2023-05-03T22:15:16.950Z,11.59
2023-05-03T22:17:44.451Z,11.62
2023-05-03T22:20:12.227Z,11.75
2023-05-03T22:22:39.714Z,11.91
2023-05-03T22:25:07.907Z,11.41
2023-05-03T22:27:35.485Z,11.41
2023-05-03T22:30:03.307Z,11.28
2023-05-03T22:32:30.995Z,11.47
2023-05-03T22:34:58.548Z,11.20
2023-05-03T22:37:26.338Z,11.41
2023-05-03T22:39:53.684Z,11.37
2023-05-03T22:42:21.126Z,11.41
2023-05-03T22:44:48.631Z,11.41
2023-05-03T22:47:16.103Z,11.31
2023-05-03T22:49:43.777Z,11.04
2023-05-03T22:52:11.358Z,10.97
2023-05-03T22:54:38.778Z,10.90
2023-05-03T22:57:06.204Z,11.00
2023-05-03T22:59:33.593Z,10.84
2023-05-03T23:02:00.973Z,10.72
2023-05-03T23:04:28.390Z,11.11
2023-05-03T23:06:55.825Z,10.87
2023-05-03T23:09:23.259Z,10.76
2023-05-03T23:11:50.725Z,11.14
2023-05-03T23:14:18.150Z,11.16
2023-05-03T23:16:45.554Z,10.61
2023-05-03T23:19:13.263Z,10.70
2023-05-03T23:21:40.650Z,10.63
2023-05-03T23:24:08.178Z,10.83
2023-05-03T23:26:35.541Z,10.55
2023-05-03T23:29:03.285Z,10.49
2023-05-03T23:31:31.631Z,10.45
2023-05-03T23:34:01.278Z,10.29
2023-05-03T23:36:28.715Z,10.55
2023-05-03T23:38:56.209Z,10.62
2023-05-03T23:41:23.651Z,10.58
2023-05-03T23:43:51.057Z,10.72
2023-05-03T23:46:18.863Z,10.77
2023-05-03T23:48:46.313Z,10.42
2023-05-03T23:51:13.753Z,10.35
2023-05-03T23:53:41.162Z,10.34
2023-05-03T23:56:09.149Z,10.53
2023-05-03T23:58:36.543Z,10.48
